sensor_id;sensor_type;location;lat;lon;timestamp;temperature;humidity
16823;DHT22;8528;49.976;11.858;2023-04-23T00:01:14;11.40;99.90
16823;DHT22;8528;49.976;11.858;2023-04-23T00:03:43;11.50;99.90
16823;DHT22;8528;49.976;11.858;2023-04-23T00:06:11;11.50;99.90
16823;DHT22;8528;49.976;11.858;2023-04-23T00:08:39;11.60;99.90
16823;DHT22;8528;49.976;11.858;2023-04-23T00:11:07;11.90;99.90
16823;DHT22;8528;49.976;11.858;2023-04-23T00:13:35;11.90;99.90
16823;DHT22;8528;49.976;11.858;2023-04-23T00:16:02;11.90;99.90
16823;DHT22;8528;49.976;11.858;2023-04-23T00:18:29;11.80;99.90
16823;DHT22;8528;49.976;11.858;2023-04-23T00:20:56;11.70;99.90
16823;DHT22;8528;49.976;11.858;2023-04-23T00:23:23;11.60;99.90
16823;DHT22;8528;49.976;11.858;2023-04-23T00:25:50;11.50;99.90
16823;DHT22;8528;49.976;11.858;2023-04-23T00:28:17;11.60;99.90
16823;DHT22;8528;49.976;11.858;2023-04-23T00:30:47;11.50;99.90
16823;DHT22;8528;49.976;11.858;2023-04-23T00:33:14;11.50;99.90
16823;DHT22;8528;49.976;11.858;2023-04-23T00:35:41;11.40;99.90
16823;DHT22;8528;49.976;11.858;2023-04-23T00:38:08;11.40;99.90
16823;DHT22;8528;49.976;11.858;2023-04-23T00:40:35;11.40;99.90
16823;DHT22;8528;49.976;11.858;2023-04-23T00:43:03;11.30;99.90
16823;DHT22;8528;49.976;11.858;2023-04-23T00:45:30;11.30;99.90
16823;DHT22;8528;49.976;11.858;2023-04-23T00:47:57;11.30;99.90
16823;DHT22;8528;49.976;11.858;2023-04-23T00:50:24;11.20;99.90
16823;DHT22;8528;49.976;11.858;2023-04-23T00:52:51;11.10;99.90
16823;DHT22;8528;49.976;11.858;2023-04-23T00:55:18;11.10;99.90
16823;DHT22;8528;49.976;11.858;2023-04-23T00:57:47;11.00;99.90
16823;DHT22;8528;49.976;11.858;2023-04-23T01:00:14;11.00;99.90
16823;DHT22;8528;49.976;11.858;2023-04-23T01:02:42;10.90;99.90
16823;DHT22;8528;49.976;11.858;2023-04-23T01:05:11;10.80;99.90
16823;DHT22;8528;49.976;11.858;2023-04-23T01:07:39;10.80;99.90
16823;DHT22;8528;49.976;11.858;2023-04-23T01:10:07;10.70;99.90
16823;DHT22;8528;49.976;11.858;2023-04-23T01:12:34;10.60;99.90
16823;DHT22;8528;49.976;11.858;2023-04-23T01:15:02;10.60;99.90
16823;DHT22;8528;49.976;11.858;2023-04-23T01:17:29;10.50;99.90
16823;DHT22;8528;49.976;11.858;2023-04-23T01:19:56;10.50;99.90
16823;DHT22;8528;49.976;11.858;2023-04-23T01:22:23;10.40;99.90
16823;DHT22;8528;49.976;11.858;2023-04-23T01:24:51;10.40;99.90
16823;DHT22;8528;49.976;11.858;2023-04-23T01:27:18;10.30;99.90
16823;DHT22;8528;49.976;11.858;2023-04-23T01:29:46;10.30;99.90
16823;DHT22;8528;49.976;11.858;2023-04-23T01:32:13;10.20;99.90
16823;DHT22;8528;49.976;11.858;2023-04-23T01:34:43;10.10;99.90
16823;DHT22;8528;49.976;11.858;2023-04-23T01:37:12;10.00;99.90
16823;DHT22;8528;49.976;11.858;2023-04-23T01:39:40;10.00;99.90
16823;DHT22;8528;49.976;11.858;2023-04-23T01:42:07;10.00;99.90
16823;DHT22;8528;49.976;11.858;2023-04-23T01:44:33;9.90;99.90
16823;DHT22;8528;49.976;11.858;2023-04-23T01:47:01;9.90;99.90
16823;DHT22;8528;49.976;11.858;2023-04-23T01:49:27;9.80;99.90
16823;DHT22;8528;49.976;11.858;2023-04-23T01:51:54;9.80;99.90
16823;DHT22;8528;49.976;11.858;2023-04-23T01:54:21;9.70;99.90
16823;DHT22;8528;49.976;11.858;2023-04-23T01:56:48;9.60;99.90
16823;DHT22;8528;49.976;11.858;2023-04-23T01:59:15;9.60;99.90
16823;DHT22;8528;49.976;11.858;2023-04-23T02:01:46;9.60;99.90
16823;DHT22;8528;49.976;11.858;2023-04-23T02:04:14;9.60;99.90
16823;DHT22;8528;49.976;11.858;2023-04-23T02:06:43;9.50;99.90
16823;DHT22;8528;49.976;11.858;2023-04-23T02:09:17;9.50;99.90
16823;DHT22;8528;49.976;11.858;2023-04-23T02:11:44;9.50;99.90
16823;DHT22;8528;49.976;11.858;2023-04-23T02:14:11;9.40;99.90
16823;DHT22;8528;49.976;11.858;2023-04-23T02:16:38;9.40;99.90
16823;DHT22;8528;49.976;11.858;2023-04-23T02:19:05;9.40;99.90
16823;DHT22;8528;49.976;11.858;2023-04-23T02:21:32;9.30;99.90
16823;DHT22;8528;49.976;11.858;2023-04-23T02:23:58;9.30;99.90
16823;DHT22;8528;49.976;11.858;2023-04-23T02:26:25;9.20;99.90
16823;DHT22;8528;49.976;11.858;2023-04-23T02:28:54;9.20;99.90
16823;DHT22;8528;49.976;11.858;2023-04-23T02:31:21;9.20;99.90
16823;DHT22;8528;49.976;11.858;2023-04-23T02:33:48;9.10;99.90
16823;DHT22;8528;49.976;11.858;2023-04-23T02:36:15;9.20;99.90
16823;DHT22;8528;49.976;11.858;2023-04-23T02:38:41;9.20;99.90
16823;DHT22;8528;49.976;11.858;2023-04-23T02:41:10;9.10;99.90
16823;DHT22;8528;49.976;11.858;2023-04-23T02:43:37;9.20;99.90
16823;DHT22;8528;49.976;11.858;2023-04-23T02:46:04;9.20;99.90
16823;DHT22;8528;49.976;11.858;2023-04-23T02:48:36;9.30;99.90
16823;DHT22;8528;49.976;11.858;2023-04-23T02:51:04;9.30;99.90
16823;DHT22;8528;49.976;11.858;2023-04-23T02:53:32;9.20;99.90
16823;DHT22;8528;49.976;11.858;2023-04-23T02:55:59;9.20;99.90
16823;DHT22;8528;49.976;11.858;2023-04-23T02:58:27;9.20;99.90
16823;DHT22;8528;49.976;11.858;2023-04-23T03:00:54;9.20;99.90
16823;DHT22;8528;49.976;11.858;2023-04-23T03:03:21;9.10;99.90
16823;DHT22;8528;49.976;11.858;2023-04-23T03:05:52;9.10;99.90
16823;DHT22;8528;49.976;11.858;2023-04-23T03:08:19;9.00;99.90
16823;DHT22;8528;49.976;11.858;2023-04-23T03:10:46;9.10;99.90
16823;DHT22;8528;49.976;11.858;2023-04-23T03:13:12;9.20;99.90
16823;DHT22;8528;49.976;11.858;2023-04-23T03:15:40;9.20;99.90
16823;DHT22;8528;49.976;11.858;2023-04-23T03:18:07;9.30;99.90
16823;DHT22;8528;49.976;11.858;2023-04-23T03:20:34;9.30;99.90
16823;DHT22;8528;49.976;11.858;2023-04-23T03:23:02;9.40;99.90
16823;DHT22;8528;49.976;11.858;2023-04-23T03:25:32;9.50;99.90
16823;DHT22;8528;49.976;11.858;2023-04-23T03:27:59;9.50;99.90
16823;DHT22;8528;49.976;11.858;2023-04-23T03:30:28;9.60;99.90
16823;DHT22;8528;49.976;11.858;2023-04-23T03:32:56;9.80;99.90
16823;DHT22;8528;49.976;11.858;2023-04-23T03:35:24;10.00;99.90
16823;DHT22;8528;49.976;11.858;2023-04-23T03:37:51;10.10;99.90
16823;DHT22;8528;49.976;11.858;2023-04-23T03:40:19;10.10;99.90
16823;DHT22;8528;49.976;11.858;2023-04-23T03:42:46;10.10;99.90
16823;DHT22;8528;49.976;11.858;2023-04-23T03:45:14;10.10;99.90
16823;DHT22;8528;49.976;11.858;2023-04-23T03:47:42;10.20;99.90
16823;DHT22;8528;49.976;11.858;2023-04-23T03:50:10;10.30;99.90
16823;DHT22;8528;49.976;11.858;2023-04-23T03:52:40;10.30;99.90
16823;DHT22;8528;49.976;11.858;2023-04-23T03:55:25;10.40;99.90
16823;DHT22;8528;49.976;11.858;2023-04-23T03:57:52;10.40;99.90
16823;DHT22;8528;49.976;11.858;2023-04-23T04:00:20;10.50;99.90
16823;DHT22;8528;49.976;11.858;2023-04-23T04:02:47;10.50;99.90
16823;DHT22;8528;49.976;11.858;2023-04-23T04:05:15;10.50;99.90
16823;DHT22;8528;49.976;11.858;2023-04-23T04:07:42;10.50;99.90
16823;DHT22;8528;49.976;11.858;2023-04-23T04:10:09;10.50;99.90
16823;DHT22;8528;49.976;11.858;2023-04-23T04:12:37;10.50;99.90
16823;DHT22;8528;49.976;11.858;2023-04-23T04:15:04;10.60;99.90
16823;DHT22;8528;49.976;11.858;2023-04-23T04:17:31;10.60;99.90
16823;DHT22;8528;49.976;11.858;2023-04-23T04:19:58;10.70;99.90
16823;DHT22;8528;49.976;11.858;2023-04-23T04:22:25;10.70;99.90
16823;DHT22;8528;49.976;11.858;2023-04-23T04:24:52;10.60;99.90
16823;DHT22;8528;49.976;11.858;2023-04-23T04:27:20;10.70;99.90
16823;DHT22;8528;49.976;11.858;2023-04-23T04:29:47;10.70;99.90
16823;DHT22;8528;49.976;11.858;2023-04-23T04:32:14;10.70;99.90
16823;DHT22;8528;49.976;11.858;2023-04-23T04:34:41;10.70;99.90
16823;DHT22;8528;49.976;11.858;2023-04-23T04:37:09;10.70;99.90
16823;DHT22;8528;49.976;11.858;2023-04-23T04:39:37;10.60;99.90
16823;DHT22;8528;49.976;11.858;2023-04-23T04:42:04;10.70;99.90
16823;DHT22;8528;49.976;11.858;2023-04-23T04:44:32;10.70;99.90
16823;DHT22;8528;49.976;11.858;2023-04-23T04:46:59;10.70;99.90
16823;DHT22;8528;49.976;11.858;2023-04-23T04:49:27;10.80;99.90
16823;DHT22;8528;49.976;11.858;2023-04-23T04:51:54;10.80;99.90
16823;DHT22;8528;49.976;11.858;2023-04-23T04:54:21;10.80;99.90
16823;DHT22;8528;49.976;11.858;2023-04-23T04:56:48;10.80;99.90
16823;DHT22;8528;49.976;11.858;2023-04-23T04:59:15;10.70;99.90
16823;DHT22;8528;49.976;11.858;2023-04-23T05:01:42;10.70;99.90
16823;DHT22;8528;49.976;11.858;2023-04-23T05:04:09;10.70;99.90
16823;DHT22;8528;49.976;11.858;2023-04-23T05:06:36;10.80;99.90
16823;DHT22;8528;49.976;11.858;2023-04-23T05:09:04;10.80;99.90
16823;DHT22;8528;49.976;11.858;2023-04-23T05:11:30;10.80;99.90
16823;DHT22;8528;49.976;11.858;2023-04-23T05:13:57;10.80;99.90
16823;DHT22;8528;49.976;11.858;2023-04-23T05:16:24;10.80;99.90
16823;DHT22;8528;49.976;11.858;2023-04-23T05:18:52;10.90;99.90
16823;DHT22;8528;49.976;11.858;2023-04-23T05:21:19;10.90;99.90
16823;DHT22;8528;49.976;11.858;2023-04-23T05:23:46;10.90;99.90
16823;DHT22;8528;49.976;11.858;2023-04-23T05:26:14;11.00;99.90
16823;DHT22;8528;49.976;11.858;2023-04-23T05:28:41;11.00;99.90
16823;DHT22;8528;49.976;11.858;2023-04-23T05:31:08;11.10;99.90
16823;DHT22;8528;49.976;11.858;2023-04-23T05:33:35;11.10;99.90
16823;DHT22;8528;49.976;11.858;2023-04-23T05:36:15;11.20;99.90
16823;DHT22;8528;49.976;11.858;2023-04-23T05:38:42;11.20;99.90
16823;DHT22;8528;49.976;11.858;2023-04-23T05:41:09;11.20;99.90
16823;DHT22;8528;49.976;11.858;2023-04-23T05:43:35;11.20;99.90
16823;DHT22;8528;49.976;11.858;2023-04-23T05:46:03;11.20;99.90
16823;DHT22;8528;49.976;11.858;2023-04-23T05:48:33;11.30;99.90
16823;DHT22;8528;49.976;11.858;2023-04-23T05:51:00;11.30;99.90
16823;DHT22;8528;49.976;11.858;2023-04-23T05:53:27;11.40;99.90
16823;DHT22;8528;49.976;11.858;2023-04-23T05:55:54;11.30;99.90
16823;DHT22;8528;49.976;11.858;2023-04-23T05:58:22;11.30;99.90
16823;DHT22;8528;49.976;11.858;2023-04-23T06:00:49;11.20;99.90
16823;DHT22;8528;49.976;11.858;2023-04-23T06:03:18;11.20;99.90
16823;DHT22;8528;49.976;11.858;2023-04-23T06:05:45;11.20;99.90
16823;DHT22;8528;49.976;11.858;2023-04-23T06:08:12;11.30;99.90
16823;DHT22;8528;49.976;11.858;2023-04-23T06:10:39;11.30;99.90
16823;DHT22;8528;49.976;11.858;2023-04-23T06:13:07;11.30;99.90
16823;DHT22;8528;49.976;11.858;2023-04-23T06:15:34;11.30;99.90
16823;DHT22;8528;49.976;11.858;2023-04-23T06:18:01;11.30;99.90
16823;DHT22;8528;49.976;11.858;2023-04-23T06:20:28;11.30;99.90
16823;DHT22;8528;49.976;11.858;2023-04-23T06:22:55;11.40;99.90
16823;DHT22;8528;49.976;11.858;2023-04-23T06:25:23;11.50;99.90
16823;DHT22;8528;49.976;11.858;2023-04-23T06:27:51;11.40;99.90
16823;DHT22;8528;49.976;11.858;2023-04-23T06:30:18;11.40;99.90
16823;DHT22;8528;49.976;11.858;2023-04-23T06:32:57;11.30;99.90
16823;DHT22;8528;49.976;11.858;2023-04-23T06:35:24;11.40;99.90
16823;DHT22;8528;49.976;11.858;2023-04-23T06:37:52;11.40;99.90
16823;DHT22;8528;49.976;11.858;2023-04-23T06:40:19;11.40;99.90
16823;DHT22;8528;49.976;11.858;2023-04-23T06:42:46;11.40;99.90
16823;DHT22;8528;49.976;11.858;2023-04-23T06:45:14;11.40;99.90
16823;DHT22;8528;49.976;11.858;2023-04-23T06:47:42;11.30;99.90
16823;DHT22;8528;49.976;11.858;2023-04-23T06:50:09;11.30;99.90
16823;DHT22;8528;49.976;11.858;2023-04-23T06:52:35;11.30;99.90
16823;DHT22;8528;49.976;11.858;2023-04-23T06:55:03;11.30;99.90
16823;DHT22;8528;49.976;11.858;2023-04-23T06:57:30;11.20;99.90
16823;DHT22;8528;49.976;11.858;2023-04-23T06:59:57;11.30;99.90
16823;DHT22;8528;49.976;11.858;2023-04-23T07:02:24;11.20;99.90
16823;DHT22;8528;49.976;11.858;2023-04-23T07:04:52;11.30;99.90
16823;DHT22;8528;49.976;11.858;2023-04-23T07:07:19;11.30;99.90
16823;DHT22;8528;49.976;11.858;2023-04-23T07:09:46;11.30;99.90
16823;DHT22;8528;49.976;11.858;2023-04-23T07:12:12;11.20;99.90
16823;DHT22;8528;49.976;11.858;2023-04-23T07:14:39;11.20;99.90
16823;DHT22;8528;49.976;11.858;2023-04-23T07:17:08;11.20;99.90
16823;DHT22;8528;49.976;11.858;2023-04-23T07:19:36;11.20;99.90
16823;DHT22;8528;49.976;11.858;2023-04-23T07:22:06;11.30;99.90
16823;DHT22;8528;49.976;11.858;2023-04-23T07:24:33;11.30;99.90
16823;DHT22;8528;49.976;11.858;2023-04-23T07:27:08;11.30;99.90
16823;DHT22;8528;49.976;11.858;2023-04-23T07:29:35;11.30;99.90
16823;DHT22;8528;49.976;11.858;2023-04-23T07:32:02;11.40;99.90
16823;DHT22;8528;49.976;11.858;2023-04-23T07:34:29;11.40;99.90
16823;DHT22;8528;49.976;11.858;2023-04-23T07:36:56;11.50;99.90
16823;DHT22;8528;49.976;11.858;2023-04-23T07:39:24;11.60;99.90
16823;DHT22;8528;49.976;11.858;2023-04-23T07:41:51;11.60;99.90
16823;DHT22;8528;49.976;11.858;2023-04-23T07:44:18;11.80;99.90
16823;DHT22;8528;49.976;11.858;2023-04-23T07:46:45;12.10;99.90
16823;DHT22;8528;49.976;11.858;2023-04-23T07:49:12;12.30;99.90
16823;DHT22;8528;49.976;11.858;2023-04-23T07:51:39;12.30;99.90
16823;DHT22;8528;49.976;11.858;2023-04-23T07:54:08;12.20;99.90
16823;DHT22;8528;49.976;11.858;2023-04-23T07:56:35;12.00;99.90
16823;DHT22;8528;49.976;11.858;2023-04-23T07:59:01;11.80;99.90
16823;DHT22;8528;49.976;11.858;2023-04-23T08:01:29;11.60;99.90
16823;DHT22;8528;49.976;11.858;2023-04-23T08:03:56;11.50;99.90
16823;DHT22;8528;49.976;11.858;2023-04-23T08:06:26;11.40;99.90
16823;DHT22;8528;49.976;11.858;2023-04-23T08:08:53;11.30;99.90
16823;DHT22;8528;49.976;11.858;2023-04-23T08:11:21;11.20;99.90
16823;DHT22;8528;49.976;11.858;2023-04-23T08:13:49;11.30;99.90
16823;DHT22;8528;49.976;11.858;2023-04-23T08:16:16;11.30;99.90
16823;DHT22;8528;49.976;11.858;2023-04-23T08:22:15;11.40;99.90
16823;DHT22;8528;49.976;11.858;2023-04-23T08:24:43;11.40;99.90
16823;DHT22;8528;49.976;11.858;2023-04-23T08:27:12;11.60;99.90
16823;DHT22;8528;49.976;11.858;2023-04-23T08:29:39;11.70;99.90
16823;DHT22;8528;49.976;11.858;2023-04-23T08:32:06;11.70;99.90
16823;DHT22;8528;49.976;11.858;2023-04-23T08:34:34;11.70;99.90
16823;DHT22;8528;49.976;11.858;2023-04-23T08:37:01;11.80;99.90
16823;DHT22;8528;49.976;11.858;2023-04-23T08:39:28;11.80;99.90
16823;DHT22;8528;49.976;11.858;2023-04-23T08:42:04;11.80;99.90
16823;DHT22;8528;49.976;11.858;2023-04-23T08:44:35;11.80;99.90
16823;DHT22;8528;49.976;11.858;2023-04-23T08:47:04;11.80;99.90
16823;DHT22;8528;49.976;11.858;2023-04-23T08:49:33;11.70;99.90
16823;DHT22;8528;49.976;11.858;2023-04-23T08:52:14;11.70;99.90
16823;DHT22;8528;49.976;11.858;2023-04-23T08:54:47;11.70;99.90
16823;DHT22;8528;49.976;11.858;2023-04-23T08:57:15;11.60;99.90
16823;DHT22;8528;49.976;11.858;2023-04-23T08:59:44;11.60;99.90
16823;DHT22;8528;49.976;11.858;2023-04-23T09:02:12;11.60;99.90
16823;DHT22;8528;49.976;11.858;2023-04-23T09:04:41;11.80;99.90
16823;DHT22;8528;49.976;11.858;2023-04-23T09:07:08;12.00;99.90
16823;DHT22;8528;49.976;11.858;2023-04-23T09:09:38;12.50;99.90
16823;DHT22;8528;49.976;11.858;2023-04-23T09:12:07;13.20;99.90
16823;DHT22;8528;49.976;11.858;2023-04-23T09:14:35;13.50;99.90
16823;DHT22;8528;49.976;11.858;2023-04-23T09:17:03;13.80;99.90
16823;DHT22;8528;49.976;11.858;2023-04-23T09:19:29;13.80;99.90
16823;DHT22;8528;49.976;11.858;2023-04-23T09:21:57;14.00;99.90
16823;DHT22;8528;49.976;11.858;2023-04-23T09:24:27;14.10;99.90
16823;DHT22;8528;49.976;11.858;2023-04-23T09:26:56;14.40;99.90
16823;DHT22;8528;49.976;11.858;2023-04-23T09:29:23;14.40;99.90
16823;DHT22;8528;49.976;11.858;2023-04-23T09:31:53;14.50;99.90
16823;DHT22;8528;49.976;11.858;2023-04-23T09:34:24;14.70;99.90
16823;DHT22;8528;49.976;11.858;2023-04-23T09:36:52;14.90;99.90
16823;DHT22;8528;49.976;11.858;2023-04-23T09:39:21;15.00;99.90
16823;DHT22;8528;49.976;11.858;2023-04-23T09:41:52;14.90;99.90
16823;DHT22;8528;49.976;11.858;2023-04-23T09:44:21;14.60;99.90
16823;DHT22;8528;49.976;11.858;2023-04-23T09:46:52;14.60;99.90
16823;DHT22;8528;49.976;11.858;2023-04-23T09:49:19;15.60;99.90
16823;DHT22;8528;49.976;11.858;2023-04-23T09:51:48;17.10;99.90
16823;DHT22;8528;49.976;11.858;2023-04-23T09:54:22;18.50;99.90
16823;DHT22;8528;49.976;11.858;2023-04-23T09:56:52;19.70;99.90
16823;DHT22;8528;49.976;11.858;2023-04-23T09:59:24;19.70;99.90
16823;DHT22;8528;49.976;11.858;2023-04-23T10:02:11;19.70;99.90
16823;DHT22;8528;49.976;11.858;2023-04-23T10:04:38;20.10;99.90
16823;DHT22;8528;49.976;11.858;2023-04-23T10:07:06;20.20;99.90
16823;DHT22;8528;49.976;11.858;2023-04-23T10:09:43;20.00;99.90
16823;DHT22;8528;49.976;11.858;2023-04-23T10:12:10;19.10;99.90
16823;DHT22;8528;49.976;11.858;2023-04-23T10:14:58;18.20;99.90
16823;DHT22;8528;49.976;11.858;2023-04-23T10:17:26;17.70;99.90
16823;DHT22;8528;49.976;11.858;2023-04-23T10:19:54;17.60;99.90
16823;DHT22;8528;49.976;11.858;2023-04-23T10:22:21;17.70;99.90
16823;DHT22;8528;49.976;11.858;2023-04-23T10:24:52;18.10;99.90
16823;DHT22;8528;49.976;11.858;2023-04-23T10:27:26;18.20;99.90
16823;DHT22;8528;49.976;11.858;2023-04-23T10:30:13;17.90;99.90
16823;DHT22;8528;49.976;11.858;2023-04-23T10:32:40;17.60;99.90
16823;DHT22;8528;49.976;11.858;2023-04-23T10:35:08;17.50;99.90
16823;DHT22;8528;49.976;11.858;2023-04-23T10:37:36;17.00;99.90
16823;DHT22;8528;49.976;11.858;2023-04-23T10:40:12;16.60;99.90
16823;DHT22;8528;49.976;11.858;2023-04-23T10:42:44;16.30;99.90
16823;DHT22;8528;49.976;11.858;2023-04-23T10:45:13;16.10;99.90
16823;DHT22;8528;49.976;11.858;2023-04-23T10:47:50;15.80;99.90
16823;DHT22;8528;49.976;11.858;2023-04-23T10:52:50;15.00;99.90
16823;DHT22;8528;49.976;11.858;2023-04-23T10:55:24;14.70;99.90
16823;DHT22;8528;49.976;11.858;2023-04-23T11:00:29;16.10;99.90
16823;DHT22;8528;49.976;11.858;2023-04-23T11:06:01;17.50;99.90
16823;DHT22;8528;49.976;11.858;2023-04-23T11:08:30;18.20;99.90
16823;DHT22;8528;49.976;11.858;2023-04-23T11:11:02;18.40;99.90
16823;DHT22;8528;49.976;11.858;2023-04-23T11:13:35;18.20;99.90
16823;DHT22;8528;49.976;11.858;2023-04-23T11:16:20;17.40;99.90
16823;DHT22;8528;49.976;11.858;2023-04-23T11:19:02;16.70;99.90
16823;DHT22;8528;49.976;11.858;2023-04-23T11:24:39;15.90;99.90
16823;DHT22;8528;49.976;11.858;2023-04-23T11:27:15;15.90;99.90
16823;DHT22;8528;49.976;11.858;2023-04-23T11:29:44;15.80;99.90
16823;DHT22;8528;49.976;11.858;2023-04-23T11:32:16;15.60;99.90
16823;DHT22;8528;49.976;11.858;2023-04-23T11:34:46;15.50;99.90
16823;DHT22;8528;49.976;11.858;2023-04-23T11:37:17;15.60;99.90
16823;DHT22;8528;49.976;11.858;2023-04-23T11:39:44;15.70;99.90
16823;DHT22;8528;49.976;11.858;2023-04-23T11:42:14;16.10;99.90
16823;DHT22;8528;49.976;11.858;2023-04-23T11:44:42;16.60;99.90
16823;DHT22;8528;49.976;11.858;2023-04-23T11:47:11;17.20;99.90
16823;DHT22;8528;49.976;11.858;2023-04-23T11:49:40;17.60;99.90
16823;DHT22;8528;49.976;11.858;2023-04-23T11:52:11;17.80;99.90
16823;DHT22;8528;49.976;11.858;2023-04-23T11:54:41;17.90;99.90
16823;DHT22;8528;49.976;11.858;2023-04-23T11:57:08;17.70;99.90
16823;DHT22;8528;49.976;11.858;2023-04-23T11:59:35;17.40;99.90
16823;DHT22;8528;49.976;11.858;2023-04-23T12:02:02;17.10;99.90
16823;DHT22;8528;49.976;11.858;2023-04-23T12:04:32;17.40;99.90
16823;DHT22;8528;49.976;11.858;2023-04-23T12:06:59;18.40;99.90
16823;DHT22;8528;49.976;11.858;2023-04-23T12:09:35;19.60;99.90
16823;DHT22;8528;49.976;11.858;2023-04-23T12:12:06;20.50;96.10
16823;DHT22;8528;49.976;11.858;2023-04-23T12:14:33;21.10;95.20
16823;DHT22;8528;49.976;11.858;2023-04-23T12:17:09;22.10;92.10
16823;DHT22;8528;49.976;11.858;2023-04-23T12:19:37;22.60;86.60
16823;DHT22;8528;49.976;11.858;2023-04-23T12:22:03;21.30;86.10
16823;DHT22;8528;49.976;11.858;2023-04-23T12:24:45;20.20;91.00
16823;DHT22;8528;49.976;11.858;2023-04-23T12:27:14;19.30;93.40
16823;DHT22;8528;49.976;11.858;2023-04-23T12:29:42;19.00;94.70
16823;DHT22;8528;49.976;11.858;2023-04-23T12:32:10;20.60;92.00
16823;DHT22;8528;49.976;11.858;2023-04-23T12:34:58;20.80;90.70
16823;DHT22;8528;49.976;11.858;2023-04-23T12:37:29;20.00;91.90
16823;DHT22;8528;49.976;11.858;2023-04-23T12:40:01;19.30;93.70
16823;DHT22;8528;49.976;11.858;2023-04-23T12:42:28;20.00;92.60
16823;DHT22;8528;49.976;11.858;2023-04-23T12:45:04;19.60;93.10
16823;DHT22;8528;49.976;11.858;2023-04-23T12:47:32;18.80;94.70
16823;DHT22;8528;49.976;11.858;2023-04-23T12:49:59;18.40;97.30
16823;DHT22;8528;49.976;11.858;2023-04-23T12:52:28;17.60;99.40
16823;DHT22;8528;49.976;11.858;2023-04-23T12:54:54;17.10;99.90
16823;DHT22;8528;49.976;11.858;2023-04-23T12:57:23;17.10;99.90
16823;DHT22;8528;49.976;11.858;2023-04-23T12:59:50;17.90;99.90
16823;DHT22;8528;49.976;11.858;2023-04-23T13:02:17;19.30;98.10
16823;DHT22;8528;49.976;11.858;2023-04-23T13:04:45;19.50;96.90
16823;DHT22;8528;49.976;11.858;2023-04-23T13:07:13;19.60;96.50
16823;DHT22;8528;49.976;11.858;2023-04-23T13:09:40;19.20;97.00
16823;DHT22;8528;49.976;11.858;2023-04-23T13:12:07;18.70;96.20
16823;DHT22;8528;49.976;11.858;2023-04-23T13:14:34;18.60;94.80
16823;DHT22;8528;49.976;11.858;2023-04-23T13:17:01;18.10;95.60
16823;DHT22;8528;49.976;11.858;2023-04-23T13:19:28;17.60;96.70
16823;DHT22;8528;49.976;11.858;2023-04-23T13:21:55;17.10;97.60
16823;DHT22;8528;49.976;11.858;2023-04-23T13:24:22;16.80;98.40
16823;DHT22;8528;49.976;11.858;2023-04-23T13:26:49;16.50;99.70
16823;DHT22;8528;49.976;11.858;2023-04-23T13:29:16;16.40;99.90
16823;DHT22;8528;49.976;11.858;2023-04-23T13:31:43;16.30;99.90
16823;DHT22;8528;49.976;11.858;2023-04-23T13:34:10;16.30;99.90
16823;DHT22;8528;49.976;11.858;2023-04-23T13:36:37;16.20;99.90
16823;DHT22;8528;49.976;11.858;2023-04-23T13:39:07;16.20;99.90
16823;DHT22;8528;49.976;11.858;2023-04-23T13:41:34;16.00;99.90
16823;DHT22;8528;49.976;11.858;2023-04-23T13:44:01;15.90;99.90
16823;DHT22;8528;49.976;11.858;2023-04-23T13:46:29;15.90;99.90
16823;DHT22;8528;49.976;11.858;2023-04-23T13:48:56;16.00;99.90
16823;DHT22;8528;49.976;11.858;2023-04-23T13:51:23;16.40;99.90
16823;DHT22;8528;49.976;11.858;2023-04-23T13:54:01;16.80;99.90
16823;DHT22;8528;49.976;11.858;2023-04-23T13:56:28;16.90;99.90
16823;DHT22;8528;49.976;11.858;2023-04-23T13:58:56;16.80;99.90
16823;DHT22;8528;49.976;11.858;2023-04-23T14:01:44;16.90;99.90
16823;DHT22;8528;49.976;11.858;2023-04-23T14:04:13;17.00;99.90
16823;DHT22;8528;49.976;11.858;2023-04-23T14:06:39;17.10;99.90
16823;DHT22;8528;49.976;11.858;2023-04-23T14:09:06;17.20;99.90
16823;DHT22;8528;49.976;11.858;2023-04-23T14:11:33;17.20;99.90
16823;DHT22;8528;49.976;11.858;2023-04-23T14:14:01;17.00;99.90
16823;DHT22;8528;49.976;11.858;2023-04-23T14:16:28;16.90;99.90
16823;DHT22;8528;49.976;11.858;2023-04-23T14:22:02;16.90;99.90
16823;DHT22;8528;49.976;11.858;2023-04-23T14:25:03;16.80;99.90
16823;DHT22;8528;49.976;11.858;2023-04-23T14:27:38;16.30;99.90
16823;DHT22;8528;49.976;11.858;2023-04-23T14:30:17;16.10;99.90
16823;DHT22;8528;49.976;11.858;2023-04-23T14:33:01;16.30;99.90
16823;DHT22;8528;49.976;11.858;2023-04-23T14:35:27;16.40;99.90
16823;DHT22;8528;49.976;11.858;2023-04-23T14:38:08;16.50;99.90
16823;DHT22;8528;49.976;11.858;2023-04-23T14:40:35;16.40;99.90
16823;DHT22;8528;49.976;11.858;2023-04-23T14:45:59;16.20;99.90
16823;DHT22;8528;49.976;11.858;2023-04-23T14:48:27;16.40;99.90
16823;DHT22;8528;49.976;11.858;2023-04-23T14:50:54;16.50;99.90
16823;DHT22;8528;49.976;11.858;2023-04-23T14:53:21;16.60;99.90
16823;DHT22;8528;49.976;11.858;2023-04-23T14:55:48;16.40;99.90
16823;DHT22;8528;49.976;11.858;2023-04-23T14:58:15;16.50;99.90
16823;DHT22;8528;49.976;11.858;2023-04-23T15:00:42;16.60;99.90
16823;DHT22;8528;49.976;11.858;2023-04-23T15:03:29;16.70;99.90
16823;DHT22;8528;49.976;11.858;2023-04-23T15:05:57;16.70;99.90
16823;DHT22;8528;49.976;11.858;2023-04-23T15:08:23;16.50;99.90
16823;DHT22;8528;49.976;11.858;2023-04-23T15:10:50;16.20;99.90
16823;DHT22;8528;49.976;11.858;2023-04-23T15:13:29;16.20;99.90
16823;DHT22;8528;49.976;11.858;2023-04-23T15:16:06;16.30;99.90
16823;DHT22;8528;49.976;11.858;2023-04-23T15:18:34;16.40;99.90
16823;DHT22;8528;49.976;11.858;2023-04-23T15:21:01;16.40;99.90
16823;DHT22;8528;49.976;11.858;2023-04-23T15:23:30;16.40;99.90
16823;DHT22;8528;49.976;11.858;2023-04-23T15:25:57;16.20;99.90
16823;DHT22;8528;49.976;11.858;2023-04-23T15:28:24;16.10;99.90
16823;DHT22;8528;49.976;11.858;2023-04-23T15:30:51;16.00;99.90
16823;DHT22;8528;49.976;11.858;2023-04-23T15:33:18;16.00;99.90
16823;DHT22;8528;49.976;11.858;2023-04-23T15:35:47;16.10;99.90
16823;DHT22;8528;49.976;11.858;2023-04-23T15:38:17;16.10;99.90
16823;DHT22;8528;49.976;11.858;2023-04-23T15:40:44;16.20;99.90
16823;DHT22;8528;49.976;11.858;2023-04-23T15:43:11;16.30;99.90
16823;DHT22;8528;49.976;11.858;2023-04-23T15:45:42;16.20;99.90
16823;DHT22;8528;49.976;11.858;2023-04-23T15:48:09;16.10;99.90
16823;DHT22;8528;49.976;11.858;2023-04-23T15:50:36;16.00;99.90
16823;DHT22;8528;49.976;11.858;2023-04-23T15:53:03;15.90;99.90
16823;DHT22;8528;49.976;11.858;2023-04-23T15:55:30;15.80;99.90
16823;DHT22;8528;49.976;11.858;2023-04-23T15:57:58;15.70;99.90
16823;DHT22;8528;49.976;11.858;2023-04-23T16:00:27;15.70;99.90
16823;DHT22;8528;49.976;11.858;2023-04-23T16:02:54;15.70;99.90